Saturday, February 24, 2018, 10:21 PM EST
Back to Local

KGED, Georgetown Sussex Co Airport

Location: Georgetown, DE, United States Lat: 38.683
Local Time: 10:21 PM EST ( 3:21 GMT) Lon: -75.367
Time Zone: US/Eastern Elev: 52 ft

Show me the last for .
Show Decoded

2018-02-24 21:54 METAR KGED 250254Z AUTO 08008KT 10SM -RA BKN023 OVC034 10/06 A3014 RMK AO2 RAB50
                 SLP208 P0000 60000 T01000061 58004 =
2018-02-24 20:54 METAR KGED 250154Z AUTO 07008KT 10SM OVC021 10/07 A3016 RMK AO2 SLP211 T01000072
                 =
2018-02-24 19:54 METAR KGED 250054Z AUTO 09006KT 10SM OVC023 10/07 A3017 RMK AO2 SLP217 T01000072
                 =
2018-02-24 18:54 METAR KGED 242354Z AUTO 05008KT 10SM OVC021 09/07 A3016 RMK AO2 SLP212 60002
                 T00940072 10128 20094 53008 =
2018-02-24 17:54 METAR KGED 242254Z AUTO 07008KT 10SM OVC020 10/08 A3014 RMK AO2 RAE23 SLP206
                 P0000 T01000078 =
2018-02-24 16:54 METAR KGED 242154Z AUTO 06006KT 8SM -RA OVC015 11/09 A3013 RMK AO2 RAB27 SLP205
                 P0002 T01060089 =
2018-02-24 16:42 METAR KGED 242142Z AUTO 07006KT 5SM -RA BR OVC015 11/09 A3013 RMK AO2 RAB27
                 P0002 T01060089 =
2018-02-24 16:30 METAR KGED 242130Z AUTO 06006KT 7SM -RA SCT006 OVC014 11/09 A3013 RMK AO2 RAB27
                 P0001 T01060094 =
2018-02-24 15:54 METAR KGED 242054Z AUTO 05008KT 3SM BR OVC005 11/09 A3013 RMK AO2 RAB27E38
                 SLP204 P0000 60000 T01110094 53001 =
2018-02-24 15:03 METAR KGED 242003Z AUTO 04006KT 4SM BR OVC006 11/09 A3012 RMK AO2 CIG 005V009
                 T01110094 =
2018-02-24 14:54 METAR KGED 241954Z AUTO 03008KT 5SM BR OVC004 11/09 A3013 RMK AO2 SLP203
                 T01110094 =
2018-02-24 14:34 METAR KGED 241934Z AUTO 02007KT 4SM BR OVC004 11/10 A3013 RMK AO2 T01060100 =
2018-02-24 14:25 METAR KGED 241925Z AUTO 02006KT 2SM BR OVC002 11/10 A3013 RMK AO2 T01110100 =
2018-02-24 13:54 METAR KGED 241854Z AUTO 06006KT 1/2SM FG OVC002 12/11 A3012 RMK AO2 SLP199
                 T01170111 =
2018-02-24 13:31 METAR KGED 241831Z AUTO 05005KT 1SM BR OVC002 12/11 A3012 RMK AO2 T01170111 =
2018-02-24 13:18 METAR KGED 241818Z AUTO 04008KT 3/4SM BR OVC002 12/11 A3011 RMK AO2 T01220111 =
2018-02-24 13:03 METAR KGED 241803Z AUTO 05007KT 1 3/4SM BR OVC003 12/11 A3013 RMK AO2 T01220111
                 =
2018-02-24 12:54 METAR KGED 241754Z AUTO 05006KT 4SM BR OVC004 13/12 A3013 RMK AO2 SLP203
                 T01280117 10133 20100 58012 =
2018-02-24 11:54 METAR KGED 241654Z AUTO 00000KT 5SM BR OVC004 12/12 A3015 RMK AO2 SLP211
                 T01220117 =
2018-02-24 11:07 METAR KGED 241607Z AUTO 00000KT 4SM BR OVC003 12/12 A3017 RMK AO2 T01220117 =
2018-02-24 10:54 METAR KGED 241554Z AUTO 00000KT 2SM BR OVC002 12/11 A3016 RMK AO2 SLP215
                 T01220111 =
2018-02-24 10:52 METAR KGED 241552Z AUTO 00000KT 2SM BR OVC002 12/11 A3017 RMK AO2 =
2018-02-24 10:40 METAR KGED 241540Z AUTO 00000KT 1 1/4SM BR OVC002 12/11 A3018 RMK AO2 T01220111
                 =
2018-02-24 09:54 METAR KGED 241454Z AUTO 00000KT 1/4SM FG VV003 12/11 A3019 RMK AO2 SLP222
                 T01170111 56002 =
2018-02-24 08:54 METAR KGED 241354Z AUTO 00000KT 1/4SM FG VV002 11/11 A3019 RMK AO2 SLP222
                 T01060106 =
2018-02-24 07:54 METAR KGED 241254Z AUTO 00000KT 1/4SM FG VV002 10/09 A3019 RMK AO2 SLP222
                 T01000094 =
2018-02-24 06:54 METAR KGED 241154Z AUTO 17003KT 1/4SM FG VV002 10/09 A3019 RMK AO2 SLP224 70002
                 T01000094 10100 20089 55001 =
2018-02-24 05:54 METAR KGED 241054Z AUTO 20005KT 1/2SM FG VV002 10/09 A3019 RMK AO2 SLP223
                 T01000094 =
2018-02-24 04:54 METAR KGED 240954Z AUTO 00000KT 1/2SM FG VV002 10/09 A3018 RMK AO2 SLP221
                 T01000089 =
2018-02-24 04:09 METAR KGED 240909Z AUTO 20005KT 3/4SM BR VV003 10/09 A3019 RMK AO2 T01000089 =
2018-02-24 03:54 METAR KGED 240854Z AUTO 21004KT 1SM BR OVC002 10/09 A3020 RMK AO2 SLP226
                 T01000089 56013 =
2018-02-24 03:52 METAR KGED 240852Z AUTO 20004KT 1 1/4SM BR OVC002 10/09 A3020 RMK AO2 =
2018-02-24 03:37 METAR KGED 240837Z AUTO 22003KT 2 1/2SM BR OVC002 10/09 A3021 RMK AO2 T01000089
                 =
2018-02-24 03:10 METAR KGED 240810Z AUTO VRB03KT 1 1/4SM BR OVC002 10/09 A3021 RMK AO2 T01000089
                 =
2018-02-24 02:54 METAR KGED 240754Z AUTO 25004KT 1SM BR OVC002 09/09 A3022 RMK AO2 SLP232
                 T00940089 =
2018-02-24 02:44 METAR KGED 240744Z AUTO 23005KT 1SM BR OVC002 09/09 A3021 RMK AO2 T00940089 =
2018-02-24 02:27 METAR KGED 240727Z AUTO 24006KT 1 1/4SM BR OVC002 09/09 A3022 RMK AO2 T00940089
                 =
2018-02-24 01:54 METAR KGED 240654Z AUTO 23005KT 3/4SM BR OVC002 09/09 A3023 RMK AO2 SLP238
                 T00940089 =
2018-02-24 01:49 METAR KGED 240649Z AUTO 23006KT 1SM BR OVC002 09/09 A3024 RMK AO2 =
2018-02-24 01:28 METAR KGED 240628Z AUTO 24007KT 1 1/4SM BR OVC002 09/08 A3025 RMK AO2 T00940083
                 =
2018-02-24 01:14 METAR KGED 240614Z AUTO 24007KT 2 1/2SM BR OVC002 09/08 A3025 RMK AO2 T00940083
                 =
2018-02-24 00:54 METAR KGED 240554Z AUTO 23009KT 1 1/2SM BR OVC002 09/08 A3025 RMK AO2 SLP244
                 T00890083 10089 20083 58014 =
2018-02-24 00:02 METAR KGED 240502Z AUTO 24005KT 1 1/4SM BR OVC002 09/08 A3027 RMK AO2 T00890078
                 =
2018-02-23 23:54 METAR KGED 240454Z AUTO 24004KT 1SM BR OVC002 09/08 A3027 RMK AO2 SLP250
                 T00890083 400890050 =
2018-02-23 23:09 METAR KGED 240409Z AUTO 24006KT 1 1/2SM BR OVC003 09/08 A3027 RMK AO2 T00890078
                 =
2018-02-23 22:54 METAR KGED 240354Z AUTO 24006KT 2SM BR OVC003 09/08 A3028 RMK AO2 SLP252
                 T00890078 =
2018-02-23 22:47 METAR KGED 240347Z AUTO 24008KT 2 1/2SM BR OVC003 09/08 A3028 RMK AO2 T00890078
                 =
2018-02-23 22:36 METAR KGED 240336Z AUTO 24006KT 4SM BR OVC003 09/08 A3028 RMK AO2 T00890078 =
2018-02-23 22:29 METAR KGED 240329Z AUTO 23010KT 2 1/2SM BR OVC003 09/08 A3028 RMK AO2 T00890078
                 =

Support USWX by starting your Amazon purchase here.